sensor_id;sensor_type;location;lat;lon;timestamp;temperature;humidity
7167;DHT22;3625;51.762;14.320;2022-08-06T00:36:31;16.90;99.90
7167;DHT22;3625;51.762;14.320;2022-08-06T00:39:03;16.90;99.90
7167;DHT22;3625;51.762;14.320;2022-08-06T01:16:05;16.60;99.90
7167;DHT22;3625;51.762;14.320;2022-08-06T01:19:00;16.70;99.90
7167;DHT22;3625;51.762;14.320;2022-08-06T01:21:58;16.60;99.90
7167;DHT22;3625;51.762;14.320;2022-08-06T01:25:17;16.70;99.90
7167;DHT22;3625;51.762;14.320;2022-08-06T01:28:21;16.70;99.90
7167;DHT22;3625;51.762;14.320;2022-08-06T01:31:02;16.70;99.90
7167;DHT22;3625;51.762;14.320;2022-08-06T01:33:38;16.70;99.90
7167;DHT22;3625;51.762;14.320;2022-08-06T01:36:17;16.70;99.90
7167;DHT22;3625;51.762;14.320;2022-08-06T01:38:57;16.70;99.90
7167;DHT22;3625;51.762;14.320;2022-08-06T01:41:34;16.70;99.90
7167;DHT22;3625;51.762;14.320;2022-08-06T01:44:29;16.70;99.90
7167;DHT22;3625;51.762;14.320;2022-08-06T01:47:07;16.70;99.90
7167;DHT22;3625;51.762;14.320;2022-08-06T01:49:46;16.60;99.90
7167;DHT22;3625;51.762;14.320;2022-08-06T01:52:32;16.60;99.90
7167;DHT22;3625;51.762;14.320;2022-08-06T01:55:10;16.50;99.90
7167;DHT22;3625;51.762;14.320;2022-08-06T01:57:50;16.40;99.90
7167;DHT22;3625;51.762;14.320;2022-08-06T02:00:46;16.40;99.90
7167;DHT22;3625;51.762;14.320;2022-08-06T02:03:24;16.30;99.90
7167;DHT22;3625;51.762;14.320;2022-08-06T02:06:19;16.20;99.90
7167;DHT22;3625;51.762;14.320;2022-08-06T02:08:58;16.10;99.90
7167;DHT22;3625;51.762;14.320;2022-08-06T02:11:53;16.10;99.90
7167;DHT22;3625;51.762;14.320;2022-08-06T02:14:37;16.10;99.90
7167;DHT22;3625;51.762;14.320;2022-08-06T02:17:12;16.10;99.90
7167;DHT22;3625;51.762;14.320;2022-08-06T02:19:44;16.10;99.90
7167;DHT22;3625;51.762;14.320;2022-08-06T02:22:38;16.10;99.90
7167;DHT22;3625;51.762;14.320;2022-08-06T02:25:11;16.10;99.90
7167;DHT22;3625;51.762;14.320;2022-08-06T02:27:55;16.10;99.90
7167;DHT22;3625;51.762;14.320;2022-08-06T02:30:31;16.10;99.90
7167;DHT22;3625;51.762;14.320;2022-08-06T02:33:11;16.00;99.90
7167;DHT22;3625;51.762;14.320;2022-08-06T02:35:47;16.00;99.90
7167;DHT22;3625;51.762;14.320;2022-08-06T02:38:22;16.00;99.90
7167;DHT22;3625;51.762;14.320;2022-08-06T02:41:00;16.00;99.90
7167;DHT22;3625;51.762;14.320;2022-08-06T02:43:35;16.00;99.90
7167;DHT22;3625;51.762;14.320;2022-08-06T02:46:11;16.00;99.90
7167;DHT22;3625;51.762;14.320;2022-08-06T02:48:47;16.00;99.90
7167;DHT22;3625;51.762;14.320;2022-08-06T02:51:24;12.80;99.90
7167;DHT22;3625;51.762;14.320;2022-08-06T02:54:21;15.90;99.90
7167;DHT22;3625;51.762;14.320;2022-08-06T02:57:00;15.80;99.90
7167;DHT22;3625;51.762;14.320;2022-08-06T02:59:42;15.80;99.90
7167;DHT22;3625;51.762;14.320;2022-08-06T03:02:23;15.70;99.90
7167;DHT22;3625;51.762;14.320;2022-08-06T03:04:56;15.60;99.90
7167;DHT22;3625;51.762;14.320;2022-08-06T03:07:30;15.50;99.90
7167;DHT22;3625;51.762;14.320;2022-08-06T03:10:01;15.50;99.90
7167;DHT22;3625;51.762;14.320;2022-08-06T03:12:39;15.40;99.90
7167;DHT22;3625;51.762;14.320;2022-08-06T03:15:14;15.50;99.90
7167;DHT22;3625;51.762;14.320;2022-08-06T03:18:06;15.50;99.90
7167;DHT22;3625;51.762;14.320;2022-08-06T03:20:39;15.40;99.90
7167;DHT22;3625;51.762;14.320;2022-08-06T03:23:11;15.30;99.90
7167;DHT22;3625;51.762;14.320;2022-08-06T03:25:43;15.30;99.90
7167;DHT22;3625;51.762;14.320;2022-08-06T03:28:14;15.20;99.90
7167;DHT22;3625;51.762;14.320;2022-08-06T03:30:49;15.10;99.90
7167;DHT22;3625;51.762;14.320;2022-08-06T03:33:22;15.00;99.90
7167;DHT22;3625;51.762;14.320;2022-08-06T03:38:49;14.90;99.90
7167;DHT22;3625;51.762;14.320;2022-08-06T03:41:23;14.90;99.90
7167;DHT22;3625;51.762;14.320;2022-08-06T03:46:34;14.80;99.90
7167;DHT22;3625;51.762;14.320;2022-08-06T03:49:10;14.70;99.90
7167;DHT22;3625;51.762;14.320;2022-08-06T03:51:55;14.70;99.90
7167;DHT22;3625;51.762;14.320;2022-08-06T03:54:31;14.70;99.90
7167;DHT22;3625;51.762;14.320;2022-08-06T03:57:11;14.60;99.90
7167;DHT22;3625;51.762;14.320;2022-08-06T03:59:52;14.60;99.90
7167;DHT22;3625;51.762;14.320;2022-08-06T04:02:40;14.60;99.90
7167;DHT22;3625;51.762;14.320;2022-08-06T04:05:16;14.60;99.90
7167;DHT22;3625;51.762;14.320;2022-08-06T04:07:53;14.60;99.90
7167;DHT22;3625;51.762;14.320;2022-08-06T04:10:32;14.60;99.90
7167;DHT22;3625;51.762;14.320;2022-08-06T04:13:09;14.60;99.90
7167;DHT22;3625;51.762;14.320;2022-08-06T04:15:59;14.60;99.90
7167;DHT22;3625;51.762;14.320;2022-08-06T04:18:35;14.60;99.90
7167;DHT22;3625;51.762;14.320;2022-08-06T04:21:09;14.60;99.90
7167;DHT22;3625;51.762;14.320;2022-08-06T04:24:04;14.60;99.90
7167;DHT22;3625;51.762;14.320;2022-08-06T04:26:37;14.60;99.90
7167;DHT22;3625;51.762;14.320;2022-08-06T04:29:10;14.60;99.90
7167;DHT22;3625;51.762;14.320;2022-08-06T04:31:44;14.60;99.90
7167;DHT22;3625;51.762;14.320;2022-08-06T04:34:36;14.70;99.90
7167;DHT22;3625;51.762;14.320;2022-08-06T04:37:28;14.70;99.90
7167;DHT22;3625;51.762;14.320;2022-08-06T04:40:09;14.70;99.90
7167;DHT22;3625;51.762;14.320;2022-08-06T04:42:53;14.70;99.90
7167;DHT22;3625;51.762;14.320;2022-08-06T04:45:24;14.60;99.90
7167;DHT22;3625;51.762;14.320;2022-08-06T04:48:15;14.70;99.90
7167;DHT22;3625;51.762;14.320;2022-08-06T04:50:47;14.70;99.90
7167;DHT22;3625;51.762;14.320;2022-08-06T04:53:21;14.70;99.90
7167;DHT22;3625;51.762;14.320;2022-08-06T05:06:36;15.20;99.90
7167;DHT22;3625;51.762;14.320;2022-08-06T05:09:18;15.40;99.90
7167;DHT22;3625;51.762;14.320;2022-08-06T05:12:16;15.30;99.90
7167;DHT22;3625;51.762;14.320;2022-08-06T05:14:54;15.30;99.90
7167;DHT22;3625;51.762;14.320;2022-08-06T05:17:32;15.40;99.90
7167;DHT22;3625;51.762;14.320;2022-08-06T05:20:11;15.50;99.90
7167;DHT22;3625;51.762;14.320;2022-08-06T05:22:59;15.70;99.90
7167;DHT22;3625;51.762;14.320;2022-08-06T05:28:24;15.80;99.90
7167;DHT22;3625;51.762;14.320;2022-08-06T05:30:54;16.10;99.90
7167;DHT22;3625;51.762;14.320;2022-08-06T05:33:27;16.10;99.90
7167;DHT22;3625;51.762;14.320;2022-08-06T05:36:05;16.10;99.90
7167;DHT22;3625;51.762;14.320;2022-08-06T05:41:25;16.50;99.90
7167;DHT22;3625;51.762;14.320;2022-08-06T05:44:01;16.70;99.90
7167;DHT22;3625;51.762;14.320;2022-08-06T05:46:36;16.80;99.90
7167;DHT22;3625;51.762;14.320;2022-08-06T05:49:12;16.70;99.90
7167;DHT22;3625;51.762;14.320;2022-08-06T05:52:07;16.60;99.90
7167;DHT22;3625;51.762;14.320;2022-08-06T05:54:48;16.60;99.90
7167;DHT22;3625;51.762;14.320;2022-08-06T05:57:25;16.50;99.90
7167;DHT22;3625;51.762;14.320;2022-08-06T06:00:16;16.50;99.90
7167;DHT22;3625;51.762;14.320;2022-08-06T06:03:13;16.50;99.90
7167;DHT22;3625;51.762;14.320;2022-08-06T06:05:52;16.50;99.90
7167;DHT22;3625;51.762;14.320;2022-08-06T06:08:40;16.50;99.90
7167;DHT22;3625;51.762;14.320;2022-08-06T06:11:26;16.50;99.90
7167;DHT22;3625;51.762;14.320;2022-08-06T06:14:27;16.40;99.90
7167;DHT22;3625;51.762;14.320;2022-08-06T06:20:17;15.90;99.90
7167;DHT22;3625;51.762;14.320;2022-08-06T06:23:16;15.70;99.90
7167;DHT22;3625;51.762;14.320;2022-08-06T06:25:54;15.70;99.90
7167;DHT22;3625;51.762;14.320;2022-08-06T06:28:37;15.70;99.90
7167;DHT22;3625;51.762;14.320;2022-08-06T06:31:21;15.80;99.90
7167;DHT22;3625;51.762;14.320;2022-08-06T06:34:21;15.70;99.90
7167;DHT22;3625;51.762;14.320;2022-08-06T06:37:00;15.90;99.90
7167;DHT22;3625;51.762;14.320;2022-08-06T06:39:39;16.00;99.90
7167;DHT22;3625;51.762;14.320;2022-08-06T06:42:15;15.90;99.90
7167;DHT22;3625;51.762;14.320;2022-08-06T06:45:04;16.10;99.90
7167;DHT22;3625;51.762;14.320;2022-08-06T06:48:04;16.00;99.90
7167;DHT22;3625;51.762;14.320;2022-08-06T06:50:42;16.10;99.90
7167;DHT22;3625;51.762;14.320;2022-08-06T06:53:16;15.90;99.90
7167;DHT22;3625;51.762;14.320;2022-08-06T06:55:52;16.10;99.90
7167;DHT22;3625;51.762;14.320;2022-08-06T06:58:34;16.20;99.90
7167;DHT22;3625;51.762;14.320;2022-08-06T07:01:15;16.30;99.90
7167;DHT22;3625;51.762;14.320;2022-08-06T07:03:57;16.40;99.90
7167;DHT22;3625;51.762;14.320;2022-08-06T07:06:30;16.20;99.90
7167;DHT22;3625;51.762;14.320;2022-08-06T07:09:16;16.20;99.90
7167;DHT22;3625;51.762;14.320;2022-08-06T07:12:07;16.20;99.90
7167;DHT22;3625;51.762;14.320;2022-08-06T07:14:49;16.10;99.90
7167;DHT22;3625;51.762;14.320;2022-08-06T07:17:29;15.90;99.90
7167;DHT22;3625;51.762;14.320;2022-08-06T07:20:18;15.80;99.90
7167;DHT22;3625;51.762;14.320;2022-08-06T07:22:58;15.70;99.90
7167;DHT22;3625;51.762;14.320;2022-08-06T07:25:48;15.50;99.90
7167;DHT22;3625;51.762;14.320;2022-08-06T07:28:22;15.50;99.90
7167;DHT22;3625;51.762;14.320;2022-08-06T07:30:56;15.50;99.90
7167;DHT22;3625;51.762;14.320;2022-08-06T07:33:41;15.50;99.90
7167;DHT22;3625;51.762;14.320;2022-08-06T07:36:31;15.50;99.90
7167;DHT22;3625;51.762;14.320;2022-08-06T07:39:08;15.50;99.90
7167;DHT22;3625;51.762;14.320;2022-08-06T07:41:42;15.60;99.90
7167;DHT22;3625;51.762;14.320;2022-08-06T07:44:36;15.60;99.90
7167;DHT22;3625;51.762;14.320;2022-08-06T07:47:26;15.70;99.90
7167;DHT22;3625;51.762;14.320;2022-08-06T07:50:18;15.90;99.90
7167;DHT22;3625;51.762;14.320;2022-08-06T07:52:51;16.00;99.90
7167;DHT22;3625;51.762;14.320;2022-08-06T07:55:24;16.20;99.90
7167;DHT22;3625;51.762;14.320;2022-08-06T07:58:07;16.30;99.90
7167;DHT22;3625;51.762;14.320;2022-08-06T08:00:43;16.30;99.90
7167;DHT22;3625;51.762;14.320;2022-08-06T08:03:17;16.40;99.90
7167;DHT22;3625;51.762;14.320;2022-08-06T08:06:24;16.50;99.90
7167;DHT22;3625;51.762;14.320;2022-08-06T08:09:00;16.50;99.90
7167;DHT22;3625;51.762;14.320;2022-08-06T08:11:32;16.50;99.90
7167;DHT22;3625;51.762;14.320;2022-08-06T08:14:28;16.70;99.90
7167;DHT22;3625;51.762;14.320;2022-08-06T08:19:29;17.10;99.90
7167;DHT22;3625;51.762;14.320;2022-08-06T08:22:05;16.80;99.90
7167;DHT22;3625;51.762;14.320;2022-08-06T08:24:42;16.80;99.90
7167;DHT22;3625;51.762;14.320;2022-08-06T08:30:04;16.90;99.90
7167;DHT22;3625;51.762;14.320;2022-08-06T08:35:13;17.10;99.90
7167;DHT22;3625;51.762;14.320;2022-08-06T08:42:49;17.50;99.90
7167;DHT22;3625;51.762;14.320;2022-08-06T08:45:24;17.50;99.90
7167;DHT22;3625;51.762;14.320;2022-08-06T08:48:01;17.60;99.90
7167;DHT22;3625;51.762;14.320;2022-08-06T08:50:33;17.70;99.90
7167;DHT22;3625;51.762;14.320;2022-08-06T08:53:07;17.90;99.90
7167;DHT22;3625;51.762;14.320;2022-08-06T08:58:32;18.10;99.90
7167;DHT22;3625;51.762;14.320;2022-08-06T09:09:18;18.90;99.90
7167;DHT22;3625;51.762;14.320;2022-08-06T09:11:58;18.90;99.90
7167;DHT22;3625;51.762;14.320;2022-08-06T09:14:37;18.80;99.90
7167;DHT22;3625;51.762;14.320;2022-08-06T09:19:44;18.70;99.90
7167;DHT22;3625;51.762;14.320;2022-08-06T09:22:15;18.80;99.90
7167;DHT22;3625;51.762;14.320;2022-08-06T09:27:18;18.90;99.90
7167;DHT22;3625;51.762;14.320;2022-08-06T09:30:16;19.00;99.90
7167;DHT22;3625;51.762;14.320;2022-08-06T09:32:56;18.90;99.90
7167;DHT22;3625;51.762;14.320;2022-08-06T09:35:57;18.80;99.90
7167;DHT22;3625;51.762;14.320;2022-08-06T09:41:06;19.00;99.90
7167;DHT22;3625;51.762;14.320;2022-08-06T09:43:43;19.20;99.90
7167;DHT22;3625;51.762;14.320;2022-08-06T09:46:40;19.50;99.90
7167;DHT22;3625;51.762;14.320;2022-08-06T09:49:16;19.40;99.90
7167;DHT22;3625;51.762;14.320;2022-08-06T09:52:13;19.40;99.90
7167;DHT22;3625;51.762;14.320;2022-08-06T09:54:44;19.30;99.90
7167;DHT22;3625;51.762;14.320;2022-08-06T09:57:24;19.30;99.90
7167;DHT22;3625;51.762;14.320;2022-08-06T10:00:04;18.90;99.90
7167;DHT22;3625;51.762;14.320;2022-08-06T10:02:44;19.30;99.90
7167;DHT22;3625;51.762;14.320;2022-08-06T10:08:02;22.80;99.90
7167;DHT22;3625;51.762;14.320;2022-08-06T10:10:41;19.60;99.90
7167;DHT22;3625;51.762;14.320;2022-08-06T10:13:18;19.70;99.90
7167;DHT22;3625;51.762;14.320;2022-08-06T10:15:49;19.80;99.90
7167;DHT22;3625;51.762;14.320;2022-08-06T10:18:35;19.80;99.90
7167;DHT22;3625;51.762;14.320;2022-08-06T10:21:28;20.10;99.90
7167;DHT22;3625;51.762;14.320;2022-08-06T10:27:05;20.30;99.90
7167;DHT22;3625;51.762;14.320;2022-08-06T10:29:52;20.10;99.90
7167;DHT22;3625;51.762;14.320;2022-08-06T10:32:27;20.20;99.90
7167;DHT22;3625;51.762;14.320;2022-08-06T10:35:12;20.10;99.90
7167;DHT22;3625;51.762;14.320;2022-08-06T10:37:50;20.20;99.90
7167;DHT22;3625;51.762;14.320;2022-08-06T10:40:23;20.30;99.90
7167;DHT22;3625;51.762;14.320;2022-08-06T10:42:58;20.40;99.90
7167;DHT22;3625;51.762;14.320;2022-08-06T10:45:34;20.40;99.90
7167;DHT22;3625;51.762;14.320;2022-08-06T10:48:16;20.40;99.90
7167;DHT22;3625;51.762;14.320;2022-08-06T10:51:08;20.40;99.90
7167;DHT22;3625;51.762;14.320;2022-08-06T10:53:41;20.30;99.90
7167;DHT22;3625;51.762;14.320;2022-08-06T10:56:31;20.30;99.90
7167;DHT22;3625;51.762;14.320;2022-08-06T10:59:13;21.10;99.90
7167;DHT22;3625;51.762;14.320;2022-08-06T11:01:58;20.40;99.90
7167;DHT22;3625;51.762;14.320;2022-08-06T11:04:41;20.30;99.90
7167;DHT22;3625;51.762;14.320;2022-08-06T11:11:07;20.40;99.90
7167;DHT22;3625;51.762;14.320;2022-08-06T11:13:59;20.40;99.90
7167;DHT22;3625;51.762;14.320;2022-08-06T11:19:38;20.50;99.90
7167;DHT22;3625;51.762;14.320;2022-08-06T11:22:34;20.50;99.90
7167;DHT22;3625;51.762;14.320;2022-08-06T11:25:07;20.60;99.90
7167;DHT22;3625;51.762;14.320;2022-08-06T11:27:51;20.90;99.90
7167;DHT22;3625;51.762;14.320;2022-08-06T11:30:42;21.00;99.90
7167;DHT22;3625;51.762;14.320;2022-08-06T11:33:15;20.80;99.90
7167;DHT22;3625;51.762;14.320;2022-08-06T11:35:48;20.90;99.90
7167;DHT22;3625;51.762;14.320;2022-08-06T11:38:55;21.00;99.90
7167;DHT22;3625;51.762;14.320;2022-08-06T11:41:56;21.00;99.90
7167;DHT22;3625;51.762;14.320;2022-08-06T11:44:28;21.10;99.90
7167;DHT22;3625;51.762;14.320;2022-08-06T11:47:08;21.10;99.90
7167;DHT22;3625;51.762;14.320;2022-08-06T11:49:59;21.10;99.90
7167;DHT22;3625;51.762;14.320;2022-08-06T11:52:39;21.20;99.90
7167;DHT22;3625;51.762;14.320;2022-08-06T11:55:12;21.30;99.90
7167;DHT22;3625;51.762;14.320;2022-08-06T11:58:18;21.20;99.90
7167;DHT22;3625;51.762;14.320;2022-08-06T12:00:57;21.10;99.90
7167;DHT22;3625;51.762;14.320;2022-08-06T12:03:47;21.10;99.90
7167;DHT22;3625;51.762;14.320;2022-08-06T12:06:20;21.00;99.90
7167;DHT22;3625;51.762;14.320;2022-08-06T12:09:08;20.90;99.90
7167;DHT22;3625;51.762;14.320;2022-08-06T12:12:30;20.90;99.90
7167;DHT22;3625;51.762;14.320;2022-08-06T12:15:04;20.90;99.90
7167;DHT22;3625;51.762;14.320;2022-08-06T12:23:27;21.20;99.90
7167;DHT22;3625;51.762;14.320;2022-08-06T12:29:03;21.50;99.90
7167;DHT22;3625;51.762;14.320;2022-08-06T12:31:38;21.60;99.90
7167;DHT22;3625;51.762;14.320;2022-08-06T12:34:26;21.40;99.90
7167;DHT22;3625;51.762;14.320;2022-08-06T12:36:58;21.40;99.90
7167;DHT22;3625;51.762;14.320;2022-08-06T12:39:27;21.30;99.90
7167;DHT22;3625;51.762;14.320;2022-08-06T12:42:25;21.50;99.90
7167;DHT22;3625;51.762;14.320;2022-08-06T12:45:20;21.50;99.90
7167;DHT22;3625;51.762;14.320;2022-08-06T12:48:11;21.60;99.90
7167;DHT22;3625;51.762;14.320;2022-08-06T12:50:43;21.70;99.90
7167;DHT22;3625;51.762;14.320;2022-08-06T12:53:14;21.80;99.90
7167;DHT22;3625;51.762;14.320;2022-08-06T12:55:48;21.90;99.90
7167;DHT22;3625;51.762;14.320;2022-08-06T12:58:26;22.10;99.90
7167;DHT22;3625;51.762;14.320;2022-08-06T13:01:12;22.40;99.90
7167;DHT22;3625;51.762;14.320;2022-08-06T13:04:07;22.60;99.90
7167;DHT22;3625;51.762;14.320;2022-08-06T13:30:08;22.70;99.90
7167;DHT22;3625;51.762;14.320;2022-08-06T13:33:11;22.70;99.90
7167;DHT22;3625;51.762;14.320;2022-08-06T13:38:26;22.50;99.90
7167;DHT22;3625;51.762;14.320;2022-08-06T13:40:56;22.40;99.90
7167;DHT22;3625;51.762;14.320;2022-08-06T13:43:37;22.30;99.90
7167;DHT22;3625;51.762;14.320;2022-08-06T13:46:23;22.40;99.90
7167;DHT22;3625;51.762;14.320;2022-08-06T13:49:00;22.40;99.90
7167;DHT22;3625;51.762;14.320;2022-08-06T13:59:23;23.20;99.90
7167;DHT22;3625;51.762;14.320;2022-08-06T14:02:09;23.20;99.90
7167;DHT22;3625;51.762;14.320;2022-08-06T14:04:39;23.10;99.90
7167;DHT22;3625;51.762;14.320;2022-08-06T14:44:14;23.40;99.90
7167;DHT22;3625;51.762;14.320;2022-08-06T14:52:17;23.20;99.90
7167;DHT22;3625;51.762;14.320;2022-08-06T15:00:23;23.60;99.90
7167;DHT22;3625;51.762;14.320;2022-08-06T15:33:13;22.70;99.90
7167;DHT22;3625;51.762;14.320;2022-08-06T15:38:24;23.00;99.90
7167;DHT22;3625;51.762;14.320;2022-08-06T15:43:36;23.20;99.90
7167;DHT22;3625;51.762;14.320;2022-08-06T15:46:17;23.30;99.90
7167;DHT22;3625;51.762;14.320;2022-08-06T16:18:12;21.90;99.90
7167;DHT22;3625;51.762;14.320;2022-08-06T16:20:57;22.10;99.90
7167;DHT22;3625;51.762;14.320;2022-08-06T16:26:23;22.70;99.90
7167;DHT22;3625;51.762;14.320;2022-08-06T16:29:15;22.90;99.90
7167;DHT22;3625;51.762;14.320;2022-08-06T16:31:48;22.90;99.90
7167;DHT22;3625;51.762;14.320;2022-08-06T16:34:27;22.80;99.90
7167;DHT22;3625;51.762;14.320;2022-08-06T16:45:04;22.80;99.90
7167;DHT22;3625;51.762;14.320;2022-08-06T16:53:09;23.20;99.90
7167;DHT22;3625;51.762;14.320;2022-08-06T17:11:04;24.00;99.90
7167;DHT22;3625;51.762;14.320;2022-08-06T17:20:14;24.50;99.90
7167;DHT22;3625;51.762;14.320;2022-08-06T17:48:22;24.10;99.90
7167;DHT22;3625;51.762;14.320;2022-08-06T17:57:53;23.70;99.90
7167;DHT22;3625;51.762;14.320;2022-08-06T18:20:49;21.60;99.90
7167;DHT22;3625;51.762;14.320;2022-08-06T18:23:47;21.30;99.90
7167;DHT22;3625;51.762;14.320;2022-08-06T18:26:39;21.10;99.90
7167;DHT22;3625;51.762;14.320;2022-08-06T18:35:58;20.40;99.90
7167;DHT22;3625;51.762;14.320;2022-08-06T18:41:04;20.20;99.90
7167;DHT22;3625;51.762;14.320;2022-08-06T18:51:53;19.60;99.90
7167;DHT22;3625;51.762;14.320;2022-08-06T19:10:59;18.80;99.90
7167;DHT22;3625;51.762;14.320;2022-08-06T19:13:33;18.70;99.90
7167;DHT22;3625;51.762;14.320;2022-08-06T19:26:32;20.80;99.90
7167;DHT22;3625;51.762;14.320;2022-08-06T19:29:03;18.30;99.90
7167;DHT22;3625;51.762;14.320;2022-08-06T19:34:10;18.20;99.90
7167;DHT22;3625;51.762;14.320;2022-08-06T19:55:25;17.60;99.90
7167;DHT22;3625;51.762;14.320;2022-08-06T20:00:54;17.40;99.90
7167;DHT22;3625;51.762;14.320;2022-08-06T20:17:57;17.00;99.90
7167;DHT22;3625;51.762;14.320;2022-08-06T20:23:00;17.00;99.90
7167;DHT22;3625;51.762;14.320;2022-08-06T20:25:39;16.90;99.90
7167;DHT22;3625;51.762;14.320;2022-08-06T20:28:30;16.90;99.90
7167;DHT22;3625;51.762;14.320;2022-08-06T20:39:00;16.50;99.90
7167;DHT22;3625;51.762;14.320;2022-08-06T20:50:10;16.30;99.90
